createdAt,value
2023-04-23T00:01:19.231Z,93.77
2023-04-23T00:03:47.761Z,93.45
2023-04-23T00:06:15.408Z,93.28
2023-04-23T00:08:42.680Z,92.68
2023-04-23T00:11:10.371Z,92.83
2023-04-23T00:13:38.138Z,93.81
2023-04-23T00:16:05.642Z,93.20
2023-04-23T00:18:32.836Z,93.29
2023-04-23T00:21:00.006Z,93.77
2023-04-23T00:23:28.917Z,95.39
2023-04-23T00:25:56.088Z,94.70
2023-04-23T00:28:22.870Z,95.33
2023-04-23T00:30:50.239Z,96.44
2023-04-23T00:33:17.125Z,95.76
2023-04-23T00:35:44.248Z,96.18
2023-04-23T00:38:11.086Z,97.33
2023-04-23T00:40:38.245Z,95.74
2023-04-23T00:43:05.371Z,96.61
2023-04-23T00:45:32.600Z,98.15
2023-04-23T00:47:59.666Z,98.42
2023-04-23T00:50:26.905Z,99.25
2023-04-23T00:52:53.795Z,99.18
2023-04-23T00:55:26.894Z,100.00
2023-04-23T00:57:54.906Z,100.00
2023-04-23T01:00:22.552Z,99.38
2023-04-23T01:02:50.601Z,99.90
2023-04-23T01:05:19.880Z,100.00
2023-04-23T01:07:47.407Z,100.00
2023-04-23T01:10:14.708Z,100.00
2023-04-23T01:12:41.489Z,100.00
2023-04-23T01:15:09.515Z,100.00
2023-04-23T01:17:37.131Z,100.00
2023-04-23T01:20:06.495Z,100.00
2023-04-23T01:22:38.037Z,100.00
2023-04-23T01:25:05.973Z,100.00
2023-04-23T01:27:35.935Z,100.00
2023-04-23T01:30:04.929Z,100.00
2023-04-23T01:32:32.627Z,100.00
2023-04-23T01:35:00.078Z,100.00
2023-04-23T01:37:27.621Z,100.00
2023-04-23T01:39:54.780Z,100.00
2023-04-23T01:42:23.374Z,100.00
2023-04-23T01:44:50.531Z,100.00
2023-04-23T01:47:19.553Z,100.00
2023-04-23T01:49:46.846Z,100.00
2023-04-23T01:52:13.697Z,100.00
2023-04-23T01:54:41.064Z,100.00
2023-04-23T01:57:08.143Z,100.00
2023-04-23T01:59:35.719Z,100.00
2023-04-23T02:02:02.586Z,100.00
2023-04-23T02:04:30.979Z,100.00
2023-04-23T02:06:57.912Z,100.00
2023-04-23T02:09:25.357Z,100.00
2023-04-23T02:11:52.159Z,100.00
2023-04-23T02:14:19.834Z,100.00
2023-04-23T02:16:47.543Z,100.00
2023-04-23T02:19:16.892Z,100.00
2023-04-23T02:21:44.091Z,100.00
2023-04-23T02:24:11.260Z,100.00
2023-04-23T02:26:38.046Z,100.00
2023-04-23T02:29:05.753Z,100.00
2023-04-23T02:31:32.642Z,100.00
2023-04-23T02:33:59.736Z,100.00
2023-04-23T02:36:28.728Z,100.00
2023-04-23T02:38:55.988Z,100.00
2023-04-23T02:41:22.896Z,100.00
2023-04-23T02:43:49.960Z,100.00
2023-04-23T02:46:16.804Z,100.00
2023-04-23T02:48:43.927Z,100.00
2023-04-23T02:51:12.901Z,100.00
2023-04-23T02:53:39.951Z,100.00
2023-04-23T02:56:07.346Z,100.00
2023-04-23T02:58:34.852Z,100.00
2023-04-23T03:01:02.583Z,100.00
2023-04-23T03:03:32.428Z,100.00
2023-04-23T03:06:02.001Z,100.00
2023-04-23T03:08:29.118Z,100.00
2023-04-23T03:10:55.874Z,100.00
2023-04-23T03:13:23.150Z,100.00
2023-04-23T03:15:50.836Z,100.00
2023-04-23T03:18:18.025Z,100.00
2023-04-23T03:20:44.866Z,100.00
2023-04-23T03:23:12.027Z,100.00
2023-04-23T03:25:39.124Z,100.00
2023-04-23T03:28:06.214Z,100.00
2023-04-23T03:30:33.519Z,100.00
2023-04-23T03:33:02.515Z,100.00
2023-04-23T03:35:29.801Z,100.00
2023-04-23T03:37:56.984Z,100.00
2023-04-23T03:40:23.851Z,100.00
2023-04-23T03:42:51.405Z,100.00
2023-04-23T03:45:18.251Z,100.00
2023-04-23T03:47:45.463Z,100.00
2023-04-23T03:50:15.493Z,100.00
2023-04-23T03:52:42.602Z,100.00
2023-04-23T03:55:10.147Z,100.00
2023-04-23T03:57:38.310Z,100.00
2023-04-23T04:00:08.365Z,100.00
2023-04-23T04:02:35.984Z,100.00
2023-04-23T04:05:03.240Z,100.00
2023-04-23T04:07:30.697Z,100.00
2023-04-23T04:09:57.562Z,100.00
2023-04-23T04:12:24.682Z,100.00
2023-04-23T04:14:51.620Z,100.00
2023-04-23T04:17:18.776Z,100.00
2023-04-23T04:19:45.666Z,100.00
2023-04-23T04:22:12.798Z,100.00
2023-04-23T04:24:42.193Z,100.00
2023-04-23T04:27:09.930Z,100.00
2023-04-23T04:29:37.142Z,100.00
2023-04-23T04:32:05.362Z,100.00
2023-04-23T04:34:32.279Z,100.00
2023-04-23T04:36:59.334Z,100.00
2023-04-23T04:39:26.292Z,100.00
2023-04-23T04:41:54.472Z,100.00
2023-04-23T04:44:22.093Z,100.00
2023-04-23T04:46:49.191Z,100.00
2023-04-23T04:49:18.263Z,100.00
2023-04-23T04:51:45.570Z,100.00
2023-04-23T04:54:12.352Z,100.00
2023-04-23T04:56:39.536Z,100.00
2023-04-23T04:59:06.360Z,100.00
2023-04-23T05:01:33.665Z,100.00
2023-04-23T05:04:01.012Z,100.00
2023-04-23T05:06:28.855Z,100.00
2023-04-23T05:08:55.900Z,100.00
2023-04-23T05:11:23.007Z,100.00
2023-04-23T05:13:49.861Z,100.00
2023-04-23T05:16:16.930Z,100.00
2023-04-23T05:18:43.708Z,100.00
2023-04-23T05:21:10.824Z,100.00
2023-04-23T05:23:37.708Z,100.00
2023-04-23T05:26:04.796Z,98.05
2023-04-23T05:28:31.738Z,95.79
2023-04-23T05:30:58.993Z,93.56
2023-04-23T05:33:30.616Z,92.80
2023-04-23T05:36:00.256Z,89.73
2023-04-23T05:38:27.249Z,91.79
2023-04-23T05:40:54.327Z,89.47
2023-04-23T05:43:21.289Z,89.01
2023-04-23T05:45:48.427Z,87.82
2023-04-23T05:48:15.288Z,86.21
2023-04-23T05:50:42.398Z,85.64
2023-04-23T05:53:09.185Z,83.80
2023-04-23T05:55:36.334Z,83.37
2023-04-23T05:58:03.082Z,77.23
2023-04-23T06:00:30.534Z,77.16
2023-04-23T06:02:57.448Z,77.91
2023-04-23T06:05:24.847Z,77.29
2023-04-23T06:07:51.716Z,75.67
2023-04-23T06:10:18.842Z,74.56
2023-04-23T06:12:45.617Z,74.04
2023-04-23T06:15:15.683Z,74.08
2023-04-23T06:17:42.579Z,73.79
2023-04-23T06:20:11.789Z,75.44
2023-04-23T06:22:38.898Z,72.90
2023-04-23T06:25:06.388Z,69.88
2023-04-23T06:27:33.903Z,69.50
2023-04-23T06:30:01.013Z,70.78
2023-04-23T06:32:27.921Z,67.41
2023-04-23T06:35:01.448Z,68.07
2023-04-23T06:37:31.738Z,68.05
2023-04-23T06:39:59.647Z,68.55
2023-04-23T06:42:26.468Z,65.48
2023-04-23T06:44:53.629Z,63.57
2023-04-23T06:47:20.601Z,64.58
2023-04-23T06:49:47.644Z,63.88
2023-04-23T06:52:14.415Z,63.54
2023-04-23T06:54:41.983Z,62.22
2023-04-23T06:57:09.988Z,58.21
2023-04-23T06:59:37.296Z,58.74
2023-04-23T07:02:04.397Z,61.30
2023-04-23T07:04:31.573Z,61.80
2023-04-23T07:06:58.542Z,60.67
2023-04-23T07:09:27.411Z,58.22
2023-04-23T07:11:54.276Z,55.19
2023-04-23T07:14:21.343Z,57.32
2023-04-23T07:16:48.139Z,51.41
2023-04-23T07:19:15.274Z,51.26
2023-04-23T07:21:42.168Z,51.86
2023-04-23T07:24:09.243Z,52.48
2023-04-23T07:26:36.330Z,51.01
2023-04-23T07:29:06.719Z,50.70
2023-04-23T07:31:34.134Z,50.16
2023-04-23T07:34:01.445Z,50.36
2023-04-23T07:36:28.737Z,50.93
2023-04-23T07:38:55.972Z,48.95
2023-04-23T07:41:22.867Z,48.60
2023-04-23T07:43:50.179Z,49.79
2023-04-23T07:46:17.048Z,45.02
2023-04-23T07:48:44.153Z,45.31
2023-04-23T07:51:11.149Z,43.32
2023-04-23T07:53:38.304Z,43.68
2023-04-23T07:56:05.279Z,42.54
2023-04-23T07:58:33.317Z,41.33
2023-04-23T08:01:00.200Z,41.18
2023-04-23T08:03:29.037Z,41.62
2023-04-23T08:05:56.939Z,40.18
2023-04-23T08:08:24.077Z,39.99
2023-04-23T08:10:50.910Z,38.67
2023-04-23T08:13:18.018Z,38.49
2023-04-23T08:15:44.837Z,38.67
2023-04-23T08:18:12.144Z,38.57
2023-04-23T08:20:38.948Z,36.77
2023-04-23T08:23:06.391Z,37.31
2023-04-23T08:25:33.300Z,37.14
2023-04-23T08:28:00.572Z,37.11
2023-04-23T08:30:27.328Z,37.38
2023-04-23T08:32:54.513Z,36.20
2023-04-23T08:35:22.321Z,36.98
2023-04-23T08:37:49.616Z,36.91
2023-04-23T08:40:17.120Z,35.97
2023-04-23T08:42:51.751Z,35.43
2023-04-23T08:45:19.045Z,34.37
2023-04-23T08:47:46.167Z,35.58
2023-04-23T08:50:18.164Z,33.76
2023-04-23T08:52:55.174Z,34.90
2023-04-23T08:55:23.712Z,34.29
2023-04-23T08:57:51.100Z,34.04
2023-04-23T09:00:23.219Z,34.17
2023-04-23T09:02:51.133Z,35.06
2023-04-23T09:05:18.038Z,33.50
2023-04-23T09:07:45.629Z,34.27
2023-04-23T09:10:16.828Z,34.97
2023-04-23T09:12:45.657Z,34.71
2023-04-23T09:15:13.464Z,33.73
2023-04-23T09:17:46.714Z,32.90
2023-04-23T09:20:14.796Z,34.15
2023-04-23T09:22:47.762Z,34.55
2023-04-23T09:25:20.715Z,35.65
2023-04-23T09:27:49.918Z,33.25
2023-04-23T09:30:18.416Z,32.07
2023-04-23T09:32:46.583Z,32.64
2023-04-23T09:35:15.519Z,31.86
2023-04-23T09:37:49.158Z,31.98
2023-04-23T09:40:20.102Z,30.39
2023-04-23T09:42:55.966Z,32.56
2023-04-23T09:45:25.773Z,31.02
2023-04-23T09:47:58.356Z,29.54
2023-04-23T09:50:36.841Z,29.51
2023-04-23T09:53:09.281Z,30.01
2023-04-23T09:55:39.332Z,30.01
2023-04-23T09:58:11.642Z,29.62
2023-04-23T10:00:40.015Z,28.82
2023-04-23T10:03:08.955Z,28.92
2023-04-23T10:08:16.550Z,27.00
2023-04-23T10:13:16.820Z,26.05
2023-04-23T10:15:46.827Z,26.81
2023-04-23T10:18:15.169Z,26.45
2023-04-23T10:20:42.892Z,26.92
2023-04-23T10:23:13.152Z,26.63
2023-04-23T10:25:41.601Z,27.46
2023-04-23T10:28:11.804Z,27.83
2023-04-23T10:30:43.115Z,26.60
2023-04-23T10:33:22.515Z,27.38
2023-04-23T10:35:56.933Z,25.71
2023-04-23T10:38:25.416Z,25.57
2023-04-23T10:40:55.504Z,26.06
2023-04-23T10:43:23.879Z,26.73
2023-04-23T10:45:50.874Z,26.00
2023-04-23T10:48:17.951Z,25.54
2023-04-23T10:51:02.476Z,25.43
2023-04-23T10:53:36.295Z,25.28
2023-04-23T10:56:07.856Z,25.92
2023-04-23T10:58:51.957Z,26.10
2023-04-23T11:01:19.705Z,24.58
2023-04-23T11:03:47.880Z,25.00
2023-04-23T11:06:20.590Z,26.82
2023-04-23T11:08:54.668Z,26.82
2023-04-23T11:11:40.203Z,27.63
2023-04-23T11:14:16.495Z,28.63
2023-04-23T11:16:43.380Z,26.45
2023-04-23T11:19:19.049Z,27.02
2023-04-23T11:22:16.786Z,26.23
2023-04-23T11:24:46.769Z,27.31
2023-04-23T11:27:18.372Z,27.19
2023-04-23T11:29:46.876Z,27.52
2023-04-23T11:32:17.035Z,27.80
2023-04-23T11:34:46.070Z,29.42
2023-04-23T11:37:15.475Z,28.17
2023-04-23T11:39:44.553Z,27.12
2023-04-23T11:42:13.293Z,25.18
2023-04-23T11:44:41.461Z,24.57
2023-04-23T11:47:11.241Z,26.60
2023-04-23T11:49:39.530Z,24.27
2023-04-23T11:52:10.148Z,24.38
2023-04-23T11:54:40.094Z,25.84
2023-04-23T11:57:06.942Z,26.58
2023-04-23T11:59:34.079Z,26.90
2023-04-23T12:02:00.929Z,27.28
2023-04-23T12:04:29.948Z,28.36
2023-04-23T12:06:58.249Z,28.53
2023-04-23T12:09:28.162Z,27.96
2023-04-23T12:11:57.018Z,27.45
2023-04-23T12:14:30.116Z,27.32
2023-04-23T12:16:58.670Z,27.42
2023-04-23T12:19:28.943Z,27.27
2023-04-23T12:21:58.004Z,28.07
2023-04-23T12:24:26.998Z,27.70
2023-04-23T12:26:56.075Z,28.37
2023-04-23T12:29:23.476Z,26.58
2023-04-23T12:31:54.622Z,27.05
2023-04-23T12:34:21.788Z,27.80
2023-04-23T12:36:55.001Z,27.58
2023-04-23T12:39:32.146Z,27.88
2023-04-23T12:42:08.076Z,28.53
2023-04-23T12:44:36.855Z,28.65
2023-04-23T12:47:07.397Z,27.22
2023-04-23T12:49:36.472Z,27.01
2023-04-23T12:52:04.887Z,25.71
2023-04-23T12:54:39.497Z,24.23
2023-04-23T12:57:08.301Z,23.29
2023-04-23T12:59:35.619Z,23.74
2023-04-23T13:02:03.990Z,22.82
2023-04-23T13:04:34.676Z,22.67
2023-04-23T13:07:02.097Z,22.43
2023-04-23T13:09:29.586Z,22.50
2023-04-23T13:11:56.844Z,23.11
2023-04-23T13:14:27.252Z,24.79
2023-04-23T13:16:54.371Z,24.17
2023-04-23T13:19:21.167Z,23.24
2023-04-23T13:21:48.206Z,24.20
2023-04-23T13:24:15.068Z,24.39
2023-04-23T13:26:42.215Z,24.26
2023-04-23T13:29:09.017Z,23.87
2023-04-23T13:31:36.179Z,23.20
2023-04-23T13:34:03.356Z,22.40
2023-04-23T13:36:30.670Z,22.07
2023-04-23T13:38:57.617Z,22.41
2023-04-23T13:41:24.675Z,23.91
2023-04-23T13:43:51.477Z,23.44
2023-04-23T13:46:19.703Z,20.54
2023-04-23T13:48:46.955Z,20.02
2023-04-23T13:51:27.179Z,19.35
2023-04-23T13:54:01.206Z,17.76
2023-04-23T13:56:30.605Z,18.24
2023-04-23T13:59:18.413Z,19.25
2023-04-23T14:01:49.851Z,17.51
2023-04-23T14:04:18.532Z,19.44
2023-04-23T14:06:45.785Z,18.63
2023-04-23T14:09:12.614Z,17.64
2023-04-23T14:11:40.614Z,17.30
2023-04-23T14:14:07.805Z,17.17
2023-04-23T14:16:35.476Z,18.26
2023-04-23T14:19:02.543Z,20.48
2023-04-23T14:21:29.781Z,21.01
2023-04-23T14:24:02.621Z,20.12
2023-04-23T14:29:08.690Z,17.12
2023-04-23T14:31:38.140Z,17.35
2023-04-23T14:34:06.266Z,17.59
2023-04-23T14:36:33.394Z,18.56
2023-04-23T14:39:04.940Z,18.39
2023-04-23T14:41:33.070Z,16.06
2023-04-23T14:44:03.453Z,16.91
2023-04-23T14:46:31.095Z,16.18
2023-04-23T14:48:58.030Z,15.73
2023-04-23T14:51:25.174Z,14.36
2023-04-23T14:53:52.849Z,14.22
2023-04-23T14:56:20.649Z,14.08
2023-04-23T14:58:47.434Z,15.10
2023-04-23T15:01:14.685Z,14.08
2023-04-23T15:03:44.989Z,13.61
2023-04-23T15:06:12.237Z,14.58
2023-04-23T15:08:39.028Z,14.98
2023-04-23T15:11:13.081Z,13.46
2023-04-23T15:14:03.777Z,13.72
2023-04-23T15:19:06.607Z,13.24
2023-04-23T15:21:33.782Z,13.52
2023-04-23T15:24:00.653Z,14.90
2023-04-23T15:26:28.194Z,15.62
2023-04-23T15:28:55.512Z,15.53
2023-04-23T15:31:22.556Z,15.77
2023-04-23T15:33:49.401Z,16.00
2023-04-23T15:36:16.485Z,16.54
2023-04-23T15:38:43.454Z,16.97
2023-04-23T15:41:11.579Z,17.05
2023-04-23T15:43:38.400Z,17.71
2023-04-23T15:46:05.815Z,17.29
2023-04-23T15:48:32.706Z,19.69
2023-04-23T15:50:59.806Z,21.44
2023-04-23T15:53:28.039Z,22.90
2023-04-23T15:55:55.135Z,23.92
2023-04-23T15:58:21.929Z,24.65
2023-04-23T16:00:49.093Z,25.16
2023-04-23T16:03:16.169Z,25.32
2023-04-23T16:05:43.432Z,27.67
2023-04-23T16:08:11.787Z,26.39
2023-04-23T16:10:38.974Z,26.18
2023-04-23T16:13:06.518Z,26.66
2023-04-23T16:15:33.717Z,26.70
2023-04-23T16:18:00.885Z,27.03
2023-04-23T16:20:28.722Z,27.10
2023-04-23T16:22:55.735Z,27.62
2023-04-23T16:25:22.980Z,27.95
2023-04-23T16:27:50.263Z,28.20
2023-04-23T16:30:17.363Z,28.28
2023-04-23T16:32:44.404Z,28.28
2023-04-23T16:35:11.678Z,29.36
2023-04-23T16:37:38.485Z,29.21
2023-04-23T16:40:06.316Z,28.36
2023-04-23T16:42:33.350Z,28.36
2023-04-23T16:45:00.466Z,28.24
2023-04-23T16:47:27.583Z,28.90
2023-04-23T16:49:54.750Z,28.82
2023-04-23T16:52:21.620Z,28.34
2023-04-23T16:54:49.592Z,28.63
2023-04-23T16:57:17.723Z,29.00
2023-04-23T16:59:47.923Z,29.16
2023-04-23T17:02:14.799Z,28.67
2023-04-23T17:04:42.289Z,29.96
2023-04-23T17:07:09.433Z,29.43
2023-04-23T17:09:37.551Z,30.81
2023-04-23T17:12:05.382Z,31.54
2023-04-23T17:14:32.553Z,30.45
2023-04-23T17:16:59.400Z,29.91
2023-04-23T17:19:26.490Z,29.83
2023-04-23T17:21:53.279Z,30.71
2023-04-23T17:24:20.477Z,30.38
2023-04-23T17:26:48.061Z,30.68
2023-04-23T17:29:15.552Z,31.65
2023-04-23T17:31:42.419Z,32.09
2023-04-23T17:34:09.485Z,32.18
2023-04-23T17:36:36.310Z,32.44
2023-04-23T17:39:03.750Z,33.32
2023-04-23T17:41:30.682Z,33.62
2023-04-23T17:43:57.828Z,34.09
2023-04-23T17:46:24.731Z,33.33
2023-04-23T17:48:51.844Z,33.43
2023-04-23T17:51:19.036Z,33.79
2023-04-23T17:53:50.530Z,33.89
2023-04-23T17:56:17.780Z,33.90
2023-04-23T17:58:45.251Z,34.17
2023-04-23T18:01:12.335Z,34.07
2023-04-23T18:03:39.527Z,34.49
2023-04-23T18:06:08.675Z,34.39
2023-04-23T18:08:36.467Z,35.01
2023-04-23T18:11:04.604Z,35.12
2023-04-23T18:13:32.000Z,35.66
2023-04-23T18:15:59.004Z,36.55
2023-04-23T18:18:26.083Z,35.68
2023-04-23T18:20:53.047Z,35.59
2023-04-23T18:23:23.160Z,36.50
2023-04-23T18:25:50.067Z,36.41
2023-04-23T18:28:17.246Z,37.11
2023-04-23T18:30:44.149Z,36.93
2023-04-23T18:33:26.633Z,37.70
2023-04-23T18:35:56.463Z,38.94
2023-04-23T18:38:25.941Z,39.62
2023-04-23T18:40:52.793Z,38.50
2023-04-23T18:43:20.121Z,40.31
2023-04-23T18:45:46.945Z,39.44
2023-04-23T18:48:35.112Z,40.32
2023-04-23T18:51:13.418Z,40.36
2023-04-23T18:53:40.932Z,40.38
2023-04-23T18:56:07.795Z,43.27
2023-04-23T18:58:34.973Z,43.60
2023-04-23T19:01:01.821Z,43.33
2023-04-23T19:03:29.725Z,43.15
2023-04-23T19:05:57.136Z,43.89
2023-04-23T19:08:30.226Z,44.59
2023-04-23T19:10:57.450Z,45.89
2023-04-23T19:13:24.615Z,45.18
2023-04-23T19:15:51.528Z,43.67
2023-04-23T19:18:19.330Z,45.00
2023-04-23T19:20:46.176Z,44.10
2023-04-23T19:23:13.233Z,44.73
2023-04-23T19:25:40.100Z,45.26
2023-04-23T19:28:07.291Z,44.49
2023-04-23T19:30:34.829Z,47.72
2023-04-23T19:33:02.019Z,46.93
2023-04-23T19:35:28.982Z,45.56
2023-04-23T19:37:56.154Z,44.92
2023-04-23T19:40:22.961Z,44.71
2023-04-23T19:42:50.424Z,45.21
2023-04-23T19:45:18.422Z,44.75
2023-04-23T19:47:45.665Z,46.45
2023-04-23T19:50:14.008Z,45.27
2023-04-23T19:52:41.479Z,45.34
2023-04-23T19:55:08.747Z,45.05
2023-04-23T19:57:36.730Z,44.99
2023-04-23T20:00:06.275Z,46.56
2023-04-23T20:02:35.164Z,47.19
2023-04-23T20:05:03.214Z,46.39
2023-04-23T20:07:30.966Z,46.83
2023-04-23T20:09:57.722Z,47.92
2023-04-23T20:12:24.863Z,47.38
2023-04-23T20:14:52.111Z,45.71
2023-04-23T20:17:19.171Z,47.69
2023-04-23T20:19:46.486Z,46.48
2023-04-23T20:22:13.591Z,46.45
2023-04-23T20:24:42.753Z,48.14
2023-04-23T20:27:09.863Z,48.23
2023-04-23T20:29:36.826Z,47.42
2023-04-23T20:32:04.309Z,48.75
2023-04-23T20:34:31.121Z,48.41
2023-04-23T20:37:02.053Z,50.14
2023-04-23T20:39:28.900Z,49.36
2023-04-23T20:41:57.833Z,50.44
2023-04-23T20:44:25.343Z,47.50
2023-04-23T20:46:52.891Z,48.75
2023-04-23T20:49:19.857Z,49.16
2023-04-23T20:51:47.053Z,49.76
2023-04-23T20:54:13.891Z,51.44
2023-04-23T20:56:40.994Z,50.52
2023-04-23T20:59:07.776Z,51.05
2023-04-23T21:01:34.916Z,50.79
2023-04-23T21:04:02.286Z,48.52
2023-04-23T21:06:31.195Z,48.78
2023-04-23T21:08:58.141Z,48.44
2023-04-23T21:11:29.239Z,48.80
2023-04-23T21:13:56.198Z,48.21
2023-04-23T21:16:23.344Z,51.13
2023-04-23T21:18:51.135Z,48.25
2023-04-23T21:21:18.301Z,48.45
2023-04-23T21:23:45.106Z,49.82
2023-04-23T21:26:12.393Z,50.12
2023-04-23T21:28:39.189Z,51.69
2023-04-23T21:31:14.492Z,54.48
2023-04-23T21:33:41.332Z,52.29
2023-04-23T21:36:08.401Z,54.00
2023-04-23T21:38:35.285Z,55.03
2023-04-23T21:41:02.532Z,54.59
2023-04-23T21:43:29.520Z,55.24
2023-04-23T21:45:56.675Z,56.42
2023-04-23T21:48:23.509Z,56.84
2023-04-23T21:50:53.619Z,57.10
2023-04-23T21:53:22.562Z,57.16
2023-04-23T21:55:49.703Z,57.54
2023-04-23T21:58:18.027Z,57.60
2023-04-23T22:00:46.359Z,57.09
2023-04-23T22:03:17.325Z,58.59
2023-04-23T22:05:48.671Z,58.54
2023-04-23T22:08:16.569Z,58.37
2023-04-23T22:10:44.311Z,58.67
2023-04-23T22:13:14.065Z,58.99
2023-04-23T22:15:41.372Z,60.15
2023-04-23T22:18:08.827Z,60.77
2023-04-23T22:20:37.595Z,60.95
2023-04-23T22:23:04.486Z,59.79
2023-04-23T22:25:31.787Z,60.52
2023-04-23T22:27:58.869Z,61.02
2023-04-23T22:30:26.055Z,63.66
2023-04-23T22:32:52.835Z,62.07
2023-04-23T22:35:20.159Z,62.81
2023-04-23T22:37:47.062Z,61.74
2023-04-23T22:40:14.243Z,62.77
2023-04-23T22:42:41.038Z,64.19
2023-04-23T22:45:08.515Z,63.31
2023-04-23T22:47:35.363Z,64.26
2023-04-23T22:50:02.696Z,65.50
2023-04-23T22:52:29.860Z,64.68
2023-04-23T22:54:57.523Z,65.93
2023-04-23T22:57:24.916Z,63.35
2023-04-23T22:59:52.066Z,64.43
2023-04-23T23:02:20.110Z,65.07
2023-04-23T23:04:47.349Z,64.38
2023-04-23T23:07:14.846Z,66.36
2023-04-23T23:09:42.097Z,67.04
2023-04-23T23:12:09.213Z,66.06
2023-04-23T23:14:37.887Z,67.25
2023-04-23T23:17:06.151Z,65.90
2023-04-23T23:19:33.235Z,66.01
2023-04-23T23:22:00.189Z,67.74
2023-04-23T23:24:27.300Z,68.24
2023-04-23T23:26:54.170Z,68.02
2023-04-23T23:29:21.307Z,67.42
2023-04-23T23:31:48.311Z,69.70
2023-04-23T23:34:15.717Z,69.84
2023-04-23T23:36:45.036Z,68.95
2023-04-23T23:39:13.331Z,72.22
2023-04-23T23:41:40.167Z,71.75
2023-04-23T23:44:07.255Z,71.52
2023-04-23T23:46:34.157Z,72.13
2023-04-23T23:49:01.378Z,69.31
2023-04-23T23:51:29.077Z,70.78
2023-04-23T23:53:56.218Z,71.46
2023-04-23T23:56:25.364Z,71.74
2023-04-23T23:58:52.473Z,72.25
